Time;durP1;ratioP1;P1;durP2;ratioP2;P2;SDS_P1;SDS_P2;PMS_P1;PMS_P2;Temp;Humidity;BMP_temperature;BMP_pressure;BME280_temperature;BME280_humidity;BME280_pressure;Samples;Min_cycle;Max_cycle;Signal;HPM_P1;HPM_P2
2022/11/28 00:01:45;;;;;;;16.73;6.87;;;8.40;96.60;;;;;;1872793;76;21240;-43
2022/11/28 00:04:14;;;;;;;17.77;7.95;;;8.40;96.70;;;;;;1872906;77;21209;-44
2022/11/28 00:06:53;;;;;;;19.07;7.92;;;8.40;96.70;;;;;;1872786;77;21657;-42
2022/11/28 00:09:19;;;;;;;20.82;7.42;;;8.40;96.70;;;;;;1872080;76;21166;-43
2022/11/28 00:11:49;;;;;;;20.02;7.97;;;8.40;96.80;;;;;;1872768;76;21227;-42
2022/11/28 00:14:19;;;;;;;20.25;8.00;;;8.50;96.80;;;;;;1872728;77;21242;-43
2022/11/28 00:16:48;;;;;;;14.43;7.12;;;8.40;96.80;;;;;;1872797;75;21125;-42
2022/11/28 00:19:18;;;;;;;16.67;6.37;;;8.40;96.70;;;;;;1872766;75;21210;-42
2022/11/28 00:21:47;;;;;;;16.00;7.33;;;8.40;96.60;;;;;;1872849;77;21222;-42
2022/11/28 00:24:16;;;;;;;20.95;7.78;;;8.40;96.60;;;;;;1872684;77;21206;-42
2022/11/28 00:26:45;;;;;;;16.05;7.22;;;8.30;96.80;;;;;;1875206;76;21238;-43
2022/11/28 00:29:14;;;;;;;16.87;7.30;;;8.30;96.80;;;;;;1882141;75;21265;-43
2022/11/28 00:31:43;;;;;;;17.75;7.25;;;8.40;96.90;;;;;;1882228;76;21646;-42
2022/11/28 00:34:14;;;;;;;15.48;7.42;;;8.40;96.80;;;;;;1882319;76;21488;-42
2022/11/28 00:36:45;;;;;;;23.73;8.45;;;8.40;96.80;;;;;;1882379;76;21198;-44
2022/11/28 00:39:15;;;;;;;18.30;8.13;;;8.40;96.90;;;;;;1882277;76;21219;-42
2022/11/28 00:41:45;;;;;;;20.90;7.70;;;8.40;96.90;;;;;;1882228;76;21096;-44
2022/11/28 00:44:15;;;;;;;16.73;7.60;;;8.50;96.80;;;;;;1882184;76;21136;-42
2022/11/28 00:46:44;;;;;;;17.10;7.42;;;8.50;96.80;;;;;;1882168;76;21394;-42
2022/11/28 00:49:13;;;;;;;18.80;7.62;;;8.50;96.70;;;;;;1882145;76;21313;-44
2022/11/28 00:51:42;;;;;;;11.57;6.12;;;8.50;96.70;;;;;;1882272;76;21214;-43
2022/11/28 00:54:12;;;;;;;16.12;7.22;;;8.50;96.70;;;;;;1882293;76;21222;-42
2022/11/28 00:56:41;;;;;;;17.70;7.12;;;8.50;96.80;;;;;;1882338;75;21266;-45
2022/11/28 00:59:10;;;;;;;14.30;6.35;;;8.50;96.70;;;;;;1882129;76;21266;-42
2022/11/28 01:01:42;;;;;;;14.13;6.95;;;8.50;96.70;;;;;;1882201;76;21320;-42
2022/11/28 01:04:14;;;;;;;18.92;6.80;;;8.50;96.50;;;;;;1882173;76;21237;-42
2022/11/28 01:06:48;;;;;;;13.68;6.62;;;8.40;96.50;;;;;;1882253;75;21116;-42
2022/11/28 01:09:20;;;;;;;11.55;5.90;;;8.40;96.60;;;;;;1882445;76;21717;-43
2022/11/28 01:11:51;;;;;;;20.20;7.60;;;8.40;96.50;;;;;;1882138;76;21388;-42
2022/11/28 01:14:22;;;;;;;17.40;6.15;;;8.40;96.70;;;;;;1882202;76;21140;-43
2022/11/28 01:16:51;;;;;;;13.03;6.17;;;8.40;96.80;;;;;;1882226;76;21275;-43
2022/11/28 01:19:20;;;;;;;12.88;5.92;;;8.40;96.80;;;;;;1882154;76;21197;-43
2022/11/28 01:21:49;;;;;;;14.83;6.83;;;8.40;96.80;;;;;;1882327;76;21205;-43
2022/11/28 01:24:18;;;;;;;14.50;6.28;;;8.50;96.80;;;;;;1882065;76;21274;-42
2022/11/28 01:26:47;;;;;;;15.88;6.17;;;8.50;96.90;;;;;;1882080;76;21235;-42
2022/11/28 01:29:16;;;;;;;12.93;6.20;;;8.60;96.80;;;;;;1872702;76;21300;-45
2022/11/28 01:31:46;;;;;;;12.25;6.03;;;8.50;96.70;;;;;;1872725;77;21068;-44
2022/11/28 01:34:15;;;;;;;12.28;6.08;;;8.60;96.70;;;;;;1872688;76;21174;-42
2022/11/28 01:36:44;;;;;;;14.80;6.42;;;8.60;96.60;;;;;;1872704;77;21210;-42
2022/11/28 01:39:14;;;;;;;11.80;5.50;;;8.60;96.80;;;;;;1872715;76;21363;-43
2022/11/28 01:41:43;;;;;;;11.15;6.25;;;8.60;96.80;;;;;;1872922;76;21270;-44
2022/11/28 01:44:18;;;;;;;12.95;6.28;;;8.60;96.70;;;;;;1872869;76;21272;-42
2022/11/28 01:46:47;;;;;;;13.88;6.28;;;8.60;96.70;;;;;;1873067;77;21226;-42
2022/11/28 01:49:19;;;;;;;13.00;5.47;;;8.60;96.70;;;;;;1872790;77;21093;-45
2022/11/28 01:51:54;;;;;;;12.60;6.10;;;8.60;96.70;;;;;;1872253;76;21173;-44
2022/11/28 01:54:25;;;;;;;12.37;5.95;;;8.50;96.60;;;;;;1873040;75;21167;-42
2022/11/28 01:56:56;;;;;;;11.50;5.67;;;8.40;96.50;;;;;;1872932;76;21301;-42
2022/11/28 01:59:28;;;;;;;11.60;6.12;;;8.40;96.50;;;;;;1872672;76;21672;-43
2022/11/28 02:01:57;;;;;;;11.22;6.55;;;8.40;96.70;;;;;;1872755;76;21209;-41
2022/11/28 02:04:29;;;;;;;14.65;6.47;;;8.30;96.60;;;;;;1872886;77;21210;-43
2022/11/28 02:06:58;;;;;;;11.85;6.22;;;8.30;96.70;;;;;;1872906;77;21155;-42
2022/11/28 02:09:27;;;;;;;13.53;6.42;;;8.30;96.60;;;;;;1872888;76;21097;-42
2022/11/28 02:12:11;;;;;;;12.33;5.40;;;8.30;96.90;;;;;;1872782;76;21146;-43
2022/11/28 02:14:49;;;;;;;12.65;6.08;;;8.30;96.70;;;;;;1865231;76;21226;-42
2022/11/28 02:17:52;;;;;;;14.10;6.67;;;8.20;96.70;;;;;;1872727;76;21149;-45
2022/11/28 02:20:43;;;;;;;13.62;6.30;;;8.20;96.70;;;;;;1872944;77;21077;-43
2022/11/28 02:23:33;;;;;;;13.93;5.83;;;8.20;96.80;;;;;;1872837;77;21202;-41
2022/11/28 02:26:04;;;;;;;15.15;6.72;;;8.20;96.70;;;;;;1872855;76;21208;-43
2022/11/28 02:28:45;;;;;;;13.62;6.55;;;8.20;96.70;;;;;;1871785;76;21323;-42
2022/11/28 02:31:46;;;;;;;14.28;6.85;;;8.20;96.80;;;;;;1872900;77;21234;-42
2022/11/28 02:34:23;;;;;;;11.48;6.15;;;8.20;96.80;;;;;;1873008;77;21352;-44
2022/11/28 02:36:57;;;;;;;13.40;6.80;;;8.20;96.80;;;;;;1872666;76;21263;-44
2022/11/28 02:39:47;;;;;;;13.55;7.20;;;8.20;96.90;;;;;;1872762;76;21616;-42
2022/11/28 02:42:22;;;;;;;15.13;7.72;;;8.20;96.90;;;;;;1872461;76;21454;-42
2022/11/28 02:44:57;;;;;;;15.28;6.95;;;8.30;96.90;;;;;;1873073;75;21279;-43
2022/11/28 02:47:39;;;;;;;;;;;8.30;96.80;;;;;;1869075;77;21241;-42
2022/11/28 02:50:14;;;;;;;15.53;6.72;;;8.30;96.90;;;;;;1872801;76;20764;-43
2022/11/28 02:52:48;;;;;;;15.45;6.75;;;8.30;96.90;;;;;;1872693;76;21202;-43
2022/11/28 02:55:17;;;;;;;15.25;6.92;;;8.30;96.90;;;;;;1873076;77;21596;-42
2022/11/28 02:57:52;;;;;;;15.48;6.67;;;8.30;96.90;;;;;;1872770;77;21230;-44
2022/11/28 03:00:29;;;;;;;14.87;6.37;;;8.30;96.80;;;;;;1872955;76;21382;-45
2022/11/28 03:03:04;;;;;;;18.48;7.97;;;8.30;96.80;;;;;;1872846;77;21081;-47
2022/11/28 03:06:06;;;;;;;18.95;8.05;;;8.30;96.80;;;;;;1872651;76;21089;-47
2022/11/28 03:09:09;;;;;;;19.48;8.73;;;8.20;96.70;;;;;;1872743;76;21337;-44
2022/11/28 03:12:01;;;;;;;16.48;6.53;;;8.20;96.80;;;;;;1872870;75;21159;-47
2022/11/28 03:14:51;;;;;;;17.67;8.23;;;8.20;97.10;;;;;;1872837;77;21180;-46
2022/11/28 03:17:40;;;;;;;16.35;8.68;;;8.20;96.90;;;;;;1872716;77;21069;-43
2022/11/28 03:20:30;;;;;;;16.00;6.80;;;8.20;96.90;;;;;;1872763;77;21238;-42
2022/11/28 03:23:14;;;;;;;17.02;7.78;;;8.20;97.00;;;;;;1872360;76;21292;-44
2022/11/28 03:26:01;;;;;;;18.60;7.60;;;8.20;96.80;;;;;;1872680;77;21621;-42
2022/11/28 03:28:45;;;;;;;18.00;8.60;;;8.20;96.80;;;;;;1872703;76;21302;-42
2022/11/28 03:31:17;;;;;;;12.78;6.50;;;8.30;96.80;;;;;;1872640;77;21864;-47
2022/11/28 03:33:48;;;;;;;17.70;7.47;;;8.30;96.80;;;;;;1872437;76;21878;-45
2022/11/28 03:36:23;;;;;;;15.45;7.35;;;8.30;96.90;;;;;;1872841;76;21125;-46
2022/11/28 03:39:01;;;;;;;17.67;7.33;;;8.30;96.90;;;;;;1872952;77;21346;-42
2022/11/28 03:41:32;;;;;;;14.87;7.87;;;8.40;96.90;;;;;;1872745;76;21407;-42
2022/11/28 03:44:03;;;;;;;13.45;6.85;;;8.40;96.90;;;;;;1872771;77;21202;-42
2022/11/28 03:46:41;;;;;;;17.23;6.47;;;8.40;96.80;;;;;;1872641;77;21337;-43
2022/11/28 03:49:12;;;;;;;12.73;6.78;;;8.30;96.80;;;;;;1872610;75;21431;-43
2022/11/28 03:51:48;;;;;;;15.68;8.68;;;8.30;96.80;;;;;;1872748;77;21362;-44
2022/11/28 03:54:23;;;;;;;;;;;8.30;96.80;;;;;;1875500;76;21268;-41
2022/11/28 03:57:05;;;;;;;16.75;7.95;;;8.30;96.80;;;;;;1872820;77;20783;-43
2022/11/28 03:59:39;;;;;;;16.10;7.85;;;8.30;96.80;;;;;;1865024;76;21220;-42
2022/11/28 04:02:27;;;;;;;20.48;9.25;;;8.30;96.80;;;;;;1872888;76;21256;-42
2022/11/28 04:05:32;;;;;;;15.43;6.62;;;8.30;96.90;;;;;;1872741;76;21745;-46
2022/11/28 04:08:04;;;;;;;34.95;11.97;;;8.30;96.90;;;;;;1806841;79;21367;-42
2022/11/28 04:10:54;;;;;;;20.75;8.48;;;8.30;96.90;;;;;;1806731;79;21248;-43
2022/11/28 04:13:34;;;;;;;20.35;8.55;;;8.30;97.20;;;;;;1849603;75;21724;-44
2022/11/28 04:16:15;;;;;;;14.25;7.75;;;8.30;97.00;;;;;;1872826;77;21701;-44
2022/11/28 04:19:02;;;;;;;18.62;9.58;;;8.30;96.90;;;;;;1872586;75;21265;-42
2022/11/28 04:21:39;;;;;;;15.48;8.30;;;8.30;96.90;;;;;;1872694;76;21210;-42
2022/11/28 04:24:21;;;;;;;16.10;7.60;;;8.20;96.90;;;;;;1872825;76;21101;-43
2022/11/28 04:26:55;;;;;;;38.30;18.10;;;8.20;97.00;;;;;;1872784;76;21210;-42
2022/11/28 04:29:25;;;;;;;16.10;9.23;;;8.20;97.00;;;;;;1872547;76;21208;-42
2022/11/28 04:31:56;;;;;;;16.00;7.90;;;8.20;97.10;;;;;;1872640;75;21257;-42
2022/11/28 04:34:27;;;;;;;17.27;7.42;;;8.20;97.10;;;;;;1872761;77;21259;-43
2022/11/28 04:36:58;;;;;;;17.42;8.10;;;8.20;97.00;;;;;;1872727;76;21141;-42
2022/11/28 04:39:30;;;;;;;16.48;7.53;;;8.20;97.00;;;;;;1872856;77;21290;-42
2022/11/28 04:42:08;;;;;;;14.78;7.70;;;8.20;97.00;;;;;;1872806;77;21044;-42
2022/11/28 04:44:52;;;;;;;13.90;8.10;;;8.20;97.00;;;;;;1872683;76;21301;-43
2022/11/28 04:47:22;;;;;;;18.15;8.80;;;8.20;97.10;;;;;;1872981;77;21226;-43
2022/11/28 04:49:51;;;;;;;19.50;8.68;;;8.20;97.10;;;;;;1872740;77;21138;-43
2022/11/28 04:52:35;;;;;;;19.73;8.45;;;8.20;97.10;;;;;;1872648;77;21259;-43
2022/11/28 04:55:22;;;;;;;16.93;9.28;;;8.20;97.10;;;;;;1872528;75;21025;-44
2022/11/28 04:57:54;;;;;;;16.73;8.35;;;8.20;97.10;;;;;;1872584;76;21332;-42
2022/11/28 05:00:23;;;;;;;18.73;8.38;;;8.20;97.10;;;;;;1872813;76;21292;-42
2022/11/28 05:02:54;;;;;;;16.02;8.78;;;8.20;97.00;;;;;;1872795;75;21311;-42
2022/11/28 05:05:27;;;;;;;20.62;8.95;;;8.20;97.20;;;;;;1872704;76;21028;-45
2022/11/28 05:07:58;;;;;;;18.32;9.00;;;8.20;97.10;;;;;;1872791;77;21149;-43
2022/11/28 05:10:29;;;;;;;20.57;7.72;;;8.20;97.10;;;;;;1872363;76;21295;-42
2022/11/28 05:12:58;;;;;;;19.20;9.45;;;8.20;97.20;;;;;;1872679;77;21126;-43
2022/11/28 05:15:27;;;;;;;29.55;12.88;;;8.20;97.20;;;;;;1872673;76;21206;-42
2022/11/28 05:17:56;;;;;;;17.30;8.68;;;8.20;97.20;;;;;;1872715;76;21190;-42
2022/11/28 05:20:26;;;;;;;20.30;9.13;;;8.20;97.40;;;;;;1872734;77;21070;-43
2022/11/28 05:22:55;;;;;;;18.60;8.70;;;8.20;97.20;;;;;;1872712;76;21318;-42
2022/11/28 05:25:23;;;;;;;16.48;7.53;;;8.20;97.40;;;;;;1872729;77;21093;-44
2022/11/28 05:27:53;;;;;;;16.12;7.50;;;8.20;97.30;;;;;;1872872;77;21105;-42
2022/11/28 05:30:22;;;;;;;14.13;7.50;;;8.20;97.30;;;;;;1872901;77;21175;-42
2022/11/28 05:32:51;;;;;;;17.40;8.23;;;8.20;97.40;;;;;;1872623;77;21274;-43
2022/11/28 05:35:21;;;;;;;13.05;6.87;;;8.20;97.50;;;;;;1872707;76;21283;-42
2022/11/28 05:37:50;;;;;;;16.48;6.92;;;8.20;97.50;;;;;;1872643;77;21146;-42
2022/11/28 05:40:19;;;;;;;14.70;7.65;;;8.20;97.50;;;;;;1872744;77;21218;-43
2022/11/28 05:42:48;;;;;;;15.78;7.08;;;8.20;97.50;;;;;;1872714;76;21251;-42
2022/11/28 05:45:17;;;;;;;15.75;7.85;;;8.20;97.50;;;;;;1872866;77;21143;-43
2022/11/28 05:47:46;;;;;;;11.95;6.33;;;8.20;97.60;;;;;;1872780;77;21220;-42
2022/11/28 05:50:15;;;;;;;16.17;7.45;;;8.20;97.60;;;;;;1872798;77;21403;-43
2022/11/28 05:52:45;;;;;;;18.55;7.78;;;8.30;97.60;;;;;;1872676;77;21241;-45
2022/11/28 05:55:14;;;;;;;12.80;6.50;;;8.30;97.40;;;;;;1872716;77;21280;-41
2022/11/28 05:57:43;;;;;;;14.45;6.87;;;8.30;97.50;;;;;;1872843;77;21213;-42
2022/11/28 06:00:13;;;;;;;15.43;7.28;;;8.30;97.40;;;;;;1872741;76;21730;-43
2022/11/28 06:02:42;;;;;;;18.67;7.28;;;8.30;97.40;;;;;;1872977;76;21105;-41
2022/11/28 06:05:12;;;;;;;16.77;7.05;;;8.30;97.40;;;;;;1872857;77;21077;-41
2022/11/28 06:07:41;;;;;;;12.75;7.05;;;8.30;97.40;;;;;;1872656;77;21198;-43
2022/11/28 06:10:11;;;;;;;15.38;7.35;;;8.30;97.50;;;;;;1872887;77;21162;-43
2022/11/28 06:12:40;;;;;;;10.25;5.35;;;8.30;97.50;;;;;;1872759;77;21287;-42
2022/11/28 06:15:10;;;;;;;9.00;5.45;;;8.30;97.60;;;;;;1872806;75;21142;-42
2022/11/28 06:17:39;;;;;;;13.98;6.97;;;8.30;97.60;;;;;;1872892;77;21166;-42
2022/11/28 06:20:09;;;;;;;34.27;6.08;;;8.30;97.70;;;;;;1872831;77;21306;-43
2022/11/28 06:22:38;;;;;;;25.80;6.70;;;8.20;97.70;;;;;;1872809;77;21149;-41
2022/11/28 06:25:08;;;;;;;10.25;5.92;;;8.20;97.70;;;;;;1872946;75;21164;-43
2022/11/28 06:27:37;;;;;;;20.45;6.08;;;8.20;97.80;;;;;;1872774;76;21222;-42
2022/11/28 06:30:07;;;;;;;10.68;6.00;;;8.10;97.90;;;;;;1872855;76;21294;-41
2022/11/28 06:32:36;;;;;;;10.03;5.30;;;8.10;97.90;;;;;;1872629;77;21226;-42
2022/11/28 06:35:05;;;;;;;7.05;4.30;;;8.10;97.90;;;;;;1872804;77;21164;-44
2022/11/28 06:37:34;;;;;;;18.12;7.12;;;8.10;98.00;;;;;;1872800;77;21193;-41
2022/11/28 06:40:04;;;;;;;14.40;6.85;;;8.00;98.00;;;;;;1872937;75;21585;-41
2022/11/28 06:42:36;;;;;;;11.68;6.65;;;8.00;98.00;;;;;;1872824;76;21145;-41
2022/11/28 06:45:07;;;;;;;8.33;4.33;;;8.10;98.10;;;;;;1872440;76;21049;-44
2022/11/28 06:47:36;;;;;;;20.48;8.03;;;8.10;98.10;;;;;;1872730;76;21217;-42
2022/11/28 06:50:07;;;;;;;10.68;6.33;;;8.00;98.10;;;;;;1872733;77;21369;-42
2022/11/28 06:52:36;;;;;;;13.00;7.47;;;8.00;98.10;;;;;;1872711;76;21694;-42
2022/11/28 06:55:06;;;;;;;16.80;8.85;;;8.00;98.20;;;;;;1872763;76;21327;-42
2022/11/28 06:57:35;;;;;;;23.55;9.25;;;8.00;98.20;;;;;;1872829;77;21297;-44
2022/11/28 07:00:05;;;;;;;12.88;6.92;;;8.00;98.20;;;;;;1872694;77;21174;-42
2022/11/28 07:02:34;;;;;;;11.88;7.40;;;8.00;98.30;;;;;;1872658;77;21270;-42
2022/11/28 07:05:03;;;;;;;18.82;8.55;;;8.00;98.30;;;;;;1872714;76;21205;-43
2022/11/28 07:07:32;;;;;;;19.77;7.97;;;8.00;98.20;;;;;;1872758;76;21210;-42
2022/11/28 07:10:01;;;;;;;17.17;9.38;;;8.00;98.10;;;;;;1872651;76;21601;-44
2022/11/28 07:12:30;;;;;;;14.47;6.78;;;8.00;98.10;;;;;;1872652;77;21213;-41
2022/11/28 07:14:59;;;;;;;8.10;4.58;;;8.00;98.10;;;;;;1872716;76;21341;-42
2022/11/28 07:17:29;;;;;;;11.08;5.83;;;8.00;98.10;;;;;;1872702;76;21409;-46
2022/11/28 07:19:58;;;;;;;13.65;8.23;;;8.00;98.20;;;;;;1872742;75;21328;-41
2022/11/28 07:22:27;;;;;;;15.40;8.23;;;8.00;98.20;;;;;;1872763;76;21141;-42
2022/11/28 07:24:56;;;;;;;15.55;8.83;;;8.00;98.20;;;;;;1872707;76;21307;-42
2022/11/28 07:27:25;;;;;;;20.05;7.45;;;7.90;98.20;;;;;;1872709;77;21233;-42
2022/11/28 07:29:55;;;;;;;9.78;6.15;;;8.00;98.30;;;;;;1872846;76;21311;-42
2022/11/28 07:32:24;;;;;;;6.20;4.28;;;8.00;98.20;;;;;;1881900;76;21296;-43
2022/11/28 07:34:53;;;;;;;17.25;6.95;;;7.90;98.10;;;;;;1882209;75;21275;-44
2022/11/28 07:37:23;;;;;;;13.50;6.67;;;7.90;98.10;;;;;;1882161;76;21348;-47
2022/11/28 07:39:52;;;;;;;14.78;7.78;;;7.90;98.10;;;;;;1882175;76;21250;-46
2022/11/28 07:42:21;;;;;;;10.58;5.20;;;7.90;98.20;;;;;;1882216;75;21205;-43
2022/11/28 07:44:52;;;;;;;5.37;3.75;;;7.90;98.20;;;;;;1881270;76;21333;-45
2022/11/28 07:47:21;;;;;;;13.80;8.43;;;7.90;98.30;;;;;;1882094;75;21157;-41
2022/11/28 07:49:50;;;;;;;7.47;4.83;;;7.80;98.50;;;;;;1882278;76;21153;-42
2022/11/28 07:52:19;;;;;;;7.87;3.83;;;7.90;98.30;;;;;;1882090;76;21331;-43
2022/11/28 07:54:49;;;;;;;10.98;6.22;;;7.80;98.30;;;;;;1882050;76;21600;-44
2022/11/28 07:57:19;;;;;;;8.38;5.78;;;7.80;98.30;;;;;;1881777;76;21220;-47
2022/11/28 07:59:49;;;;;;;7.58;4.45;;;7.90;98.30;;;;;;1890248;75;21283;-43
2022/11/28 08:02:18;;;;;;;9.33;6.45;;;7.90;98.30;;;;;;1882280;75;21207;-45
2022/11/28 08:04:47;;;;;;;9.85;5.33;;;7.90;98.20;;;;;;1881791;76;21301;-43
2022/11/28 08:07:16;;;;;;;10.13;4.95;;;7.90;98.30;;;;;;1912979;75;21621;-43
2022/11/28 08:09:47;;;;;;;8.08;4.55;;;7.90;98.20;;;;;;1888381;75;21230;-47
2022/11/28 08:12:16;;;;;;;12.07;6.12;;;7.90;98.30;;;;;;1901038;75;21236;-48
2022/11/28 08:14:46;;;;;;;6.67;4.22;;;7.90;98.10;;;;;;1914047;74;21181;-48
2022/11/28 08:17:15;;;;;;;4.30;2.95;;;7.90;98.00;;;;;;1913047;75;21292;-56
2022/11/28 08:19:44;;;;;;;6.28;3.47;;;7.90;97.90;;;;;;1913538;75;21062;-56
2022/11/28 08:22:13;;;;;;;5.80;4.25;;;7.90;97.90;;;;;;1893999;75;21214;-48
2022/11/28 08:24:42;;;;;;;12.88;5.45;;;7.90;98.00;;;;;;1891474;74;21333;-53
2022/11/28 08:27:13;;;;;;;11.85;6.53;;;7.90;98.00;;;;;;1917319;74;21122;-42
2022/11/28 08:29:42;;;;;;;9.30;5.83;;;7.90;98.00;;;;;;1894999;74;21212;-41
2022/11/28 08:32:11;;;;;;;10.63;5.87;;;7.90;98.00;;;;;;1901407;73;21102;-41
2022/11/28 08:34:40;;;;;;;9.20;4.75;;;8.00;97.90;;;;;;1895213;73;21160;-42
2022/11/28 08:37:09;;;;;;;18.35;13.20;;;8.00;97.90;;;;;;1890689;76;21343;-44
2022/11/28 08:39:38;;;;;;;6.55;4.60;;;8.00;97.70;;;;;;1890558;75;21207;-44
2022/11/28 08:42:08;;;;;;;9.43;6.22;;;8.00;97.70;;;;;;1890713;76;21216;-46
2022/11/28 08:44:37;;;;;;;9.48;6.08;;;8.00;97.70;;;;;;1890598;76;21253;-44
2022/11/28 08:47:06;;;;;;;6.78;4.87;;;8.00;97.80;;;;;;1890369;76;21168;-44
2022/11/28 08:49:38;;;;;;;8.35;6.00;;;8.00;97.60;;;;;;1890623;76;21108;-48
2022/11/28 08:52:07;;;;;;;10.80;5.95;;;8.00;97.60;;;;;;1906368;73;21248;-52
2022/11/28 08:54:36;;;;;;;9.53;6.58;;;8.00;97.60;;;;;;1923519;74;21207;-45
2022/11/28 08:57:06;;;;;;;14.30;7.58;;;8.00;97.50;;;;;;1922563;74;21363;-47
2022/11/28 08:59:35;;;;;;;17.30;11.00;;;8.00;97.60;;;;;;1913718;74;21322;-45
2022/11/28 09:02:05;;;;;;;9.43;6.67;;;8.00;97.60;;;;;;1890431;76;21146;-49
2022/11/28 09:04:34;;;;;;;15.20;8.05;;;8.00;97.60;;;;;;1891097;76;21086;-47
2022/11/28 09:07:03;;;;;;;11.70;7.25;;;8.10;97.50;;;;;;1890890;75;21198;-47
2022/11/28 09:09:33;;;;;;;16.62;8.60;;;8.10;97.40;;;;;;1891088;76;21094;-48
2022/11/28 09:12:02;;;;;;;11.08;6.10;;;8.10;97.50;;;;;;1902434;74;20999;-48
2022/11/28 09:14:31;;;;;;;9.15;4.80;;;8.20;97.50;;;;;;1924038;74;21350;-47
2022/11/28 09:17:00;;;;;;;7.92;5.15;;;8.20;97.30;;;;;;1924057;74;21237;-45
2022/11/28 09:19:29;;;;;;;12.13;7.40;;;8.10;97.10;;;;;;1924099;74;21086;-45
2022/11/28 09:21:58;;;;;;;17.57;7.95;;;8.10;97.20;;;;;;1924091;74;21628;-42
2022/11/28 09:24:28;;;;;;;14.68;7.37;;;8.10;97.50;;;;;;1924235;74;21114;-42
2022/11/28 09:26:57;;;;;;;12.03;7.53;;;8.10;97.20;;;;;;1923213;74;21766;-43
2022/11/28 09:29:27;;;;;;;14.53;6.47;;;8.10;97.30;;;;;;1923486;74;21308;-42
2022/11/28 09:31:56;;;;;;;18.30;9.35;;;8.10;97.40;;;;;;1919471;74;21255;-43
2022/11/28 09:34:26;;;;;;;16.15;8.93;;;8.10;97.30;;;;;;1904007;75;21257;-44
2022/11/28 09:36:55;;;;;;;18.00;9.30;;;8.20;97.40;;;;;;1904133;75;21221;-45
2022/11/28 09:39:25;;;;;;;23.05;11.93;;;8.20;97.10;;;;;;1904249;75;21202;-44
2022/11/28 09:42:14;;;;;;;26.50;14.63;;;8.20;97.20;;;;;;1904153;75;21176;-45
2022/11/28 09:44:58;;;;;;;18.10;10.82;;;8.10;97.20;;;;;;1872900;74;21284;-43
2022/11/28 09:47:30;;;;;;;24.52;13.88;;;8.10;97.30;;;;;;1871880;76;21239;-45
2022/11/28 09:50:10;;;;;;;16.20;9.85;;;8.10;97.30;;;;;;1871370;75;21205;-47
2022/11/28 09:53:02;;;;;;;17.50;11.60;;;8.10;97.30;;;;;;1871818;76;21269;-44
2022/11/28 09:55:49;;;;;;;10.70;6.80;;;8.10;97.30;;;;;;1871749;76;21219;-45
2022/11/28 09:58:21;;;;;;;20.85;11.45;;;8.10;97.20;;;;;;1870305;76;21190;-46
2022/11/28 10:00:52;;;;;;;15.68;8.80;;;8.10;97.10;;;;;;1870833;76;21343;-48
2022/11/28 10:03:27;;;;;;;18.05;8.13;;;8.10;97.30;;;;;;1871381;76;21753;-44
2022/11/28 10:06:11;;;;;;;16.93;10.90;;;8.10;97.20;;;;;;1867298;76;21262;-45
2022/11/28 10:08:43;;;;;;;32.35;15.65;;;8.10;97.30;;;;;;1874182;75;21600;-44
2022/11/28 10:11:21;;;;;;;40.43;17.80;;;8.10;97.20;;;;;;1904150;74;21341;-44
2022/11/28 10:14:06;;;;;;;27.27;12.37;;;8.20;97.50;;;;;;1904329;75;21320;-46
2022/11/28 10:17:13;;;;;;;22.73;13.53;;;8.20;97.30;;;;;;1904320;74;21193;-45
2022/11/28 10:19:44;;;;;;;15.38;10.10;;;8.30;97.40;;;;;;1903867;74;21677;-44
2022/11/28 10:22:20;;;;;;;26.73;13.08;;;8.30;97.00;;;;;;1890434;74;22084;-46
2022/11/28 10:24:51;;;;;;;24.82;12.33;;;8.30;97.00;;;;;;1871834;76;21215;-45
2022/11/28 10:27:23;;;;;;;31.90;13.15;;;8.20;97.10;;;;;;1871670;75;21296;-41
2022/11/28 10:29:57;;;;;;;28.17;14.23;;;8.20;97.00;;;;;;1872058;77;21254;-47
2022/11/28 10:32:34;;;;;;;18.92;10.93;;;8.20;97.00;;;;;;1872276;75;21168;-43
2022/11/28 10:35:12;;;;;;;24.95;13.55;;;8.10;97.40;;;;;;1871328;75;21463;-44
2022/11/28 10:37:43;;;;;;;27.25;14.83;;;8.10;97.20;;;;;;1871121;76;21263;-43
2022/11/28 10:40:29;;;;;;;28.25;15.80;;;8.10;97.20;;;;;;1872011;77;21220;-44
2022/11/28 10:43:19;;;;;;;35.92;15.05;;;8.10;97.20;;;;;;1871643;77;21267;-45
2022/11/28 10:45:56;;;;;;;24.50;13.32;;;8.00;97.30;;;;;;1871999;76;21148;-42
2022/11/28 10:48:45;;;;;;;18.48;9.43;;;8.10;97.40;;;;;;1871926;75;21188;-42
2022/11/28 10:51:16;;;;;;;19.98;9.90;;;8.00;97.30;;;;;;1871772;76;21227;-45
2022/11/28 10:54:06;;;;;;;35.80;14.98;;;8.00;97.10;;;;;;1871883;76;21660;-46
2022/11/28 10:56:53;;;;;;;19.42;10.82;;;8.00;97.10;;;;;;1824674;78;21220;-42
2022/11/28 10:59:30;;;;;;;21.02;12.13;;;8.00;97.20;;;;;;1863463;75;21338;-44
2022/11/28 11:02:01;;;;;;;25.30;15.03;;;8.00;97.20;;;;;;1872080;77;21222;-45
2022/11/28 11:04:33;;;;;;;43.35;20.70;;;8.00;97.20;;;;;;1871776;76;21087;-46
2022/11/28 11:07:17;;;;;;;14.73;9.73;;;8.00;97.30;;;;;;1871572;76;21718;-44
2022/11/28 11:09:46;;;;;;;14.10;8.78;;;8.00;97.20;;;;;;1872057;77;21250;-45
2022/11/28 11:12:21;;;;;;;18.17;9.98;;;8.00;97.20;;;;;;1871878;76;21140;-42
2022/11/28 11:14:50;;;;;;;16.07;10.20;;;8.00;97.20;;;;;;1872472;77;21131;-44
2022/11/28 11:17:27;;;;;;;27.02;13.58;;;8.00;97.10;;;;;;1872322;76;21136;-42
2022/11/28 11:19:56;;;;;;;22.87;13.15;;;7.90;97.10;;;;;;1872250;77;21279;-42
2022/11/28 11:22:30;;;;;;;24.87;13.75;;;7.90;97.20;;;;;;1872191;76;21421;-42
2022/11/28 11:25:18;;;;;;;18.12;10.48;;;7.80;97.30;;;;;;1872456;76;21215;-41
2022/11/28 11:27:50;;;;;;;28.05;14.03;;;7.80;97.20;;;;;;1872285;77;21275;-41
2022/11/28 11:30:41;;;;;;;22.32;12.35;;;7.80;97.30;;;;;;1872288;77;21651;-44
2022/11/28 11:33:17;;;;;;;28.30;14.23;;;7.80;97.40;;;;;;1876589;76;21813;-42
2022/11/28 11:35:48;;;;;;;16.57;9.15;;;7.80;97.30;;;;;;1890640;75;21218;-40
2022/11/28 11:38:32;;;;;;;44.65;23.42;;;7.70;97.20;;;;;;1890887;76;21137;-43
2022/11/28 11:41:06;;;;;;;12.93;7.60;;;7.80;97.20;;;;;;1890944;76;21211;-41
2022/11/28 11:43:36;;;;;;;16.87;10.93;;;7.70;97.20;;;;;;1883506;76;21226;-40
2022/11/28 11:47:44;;;;;;;11.95;9.05;;;7.70;96.90;;;;;;1958067;73;25816;-41
2022/11/28 11:50:22;;;;;;;13.60;10.15;;;7.60;97.10;;;;;;1917520;75;21722;-42
2022/11/28 11:53:12;;;;;;;17.02;10.40;;;7.60;97.20;;;;;;1917671;75;21229;-44
2022/11/28 11:55:50;;;;;;;19.80;12.43;;;7.60;97.20;;;;;;1917545;75;21078;-41
2022/11/28 11:58:43;;;;;;;20.68;12.55;;;7.60;97.40;;;;;;1917577;75;21233;-43
2022/11/28 12:01:16;;;;;;;26.50;16.32;;;7.60;97.40;;;;;;1916008;74;21225;-46
2022/11/28 12:03:55;;;;;;;30.82;16.00;;;7.60;97.20;;;;;;1916833;74;22227;-43
2022/11/28 12:06:39;;;;;;;12.55;8.48;;;7.60;97.20;;;;;;1917849;75;21063;-44
2022/11/28 12:09:14;;;;;;;28.38;15.03;;;7.60;97.10;;;;;;1917649;75;21257;-44
2022/11/28 12:11:51;;;;;;;21.60;12.30;;;7.60;97.10;;;;;;1917073;73;21623;-45
2022/11/28 12:14:35;;;;;;;31.00;15.08;;;7.60;96.90;;;;;;1917611;75;21058;-46
2022/11/28 12:17:23;;;;;;;21.65;12.70;;;7.60;97.40;;;;;;1917797;75;21282;-46
2022/11/28 12:20:05;;;;;;;23.73;12.65;;;7.70;97.00;;;;;;1917772;75;21245;-48
2022/11/28 12:22:53;;;;;;;18.70;9.78;;;7.60;97.00;;;;;;1916878;74;21331;-44
2022/11/28 12:25:45;;;;;;;21.57;12.45;;;7.60;97.00;;;;;;1917506;75;21098;-48
2022/11/28 12:28:20;;;;;;;25.25;13.98;;;7.60;96.90;;;;;;1917321;74;21844;-46
2022/11/28 12:31:18;;;;;;;25.17;12.93;;;7.50;97.00;;;;;;1916939;74;21338;-45
2022/11/28 12:33:49;;;;;;;27.58;14.13;;;7.60;97.10;;;;;;1917589;74;21760;-48
2022/11/28 12:36:26;;;;;;;24.30;13.65;;;7.50;97.00;;;;;;1916680;74;21711;-46
2022/11/28 12:39:15;;;;;;;16.07;9.13;;;7.50;97.00;;;;;;1917990;75;21251;-44
2022/11/28 12:42:04;;;;;;;15.95;10.15;;;7.50;97.10;;;;;;1918282;75;21601;-46
2022/11/28 12:44:51;;;;;;;16.37;8.55;;;7.50;97.00;;;;;;1918453;75;21153;-45
2022/11/28 12:47:25;;;;;;;27.32;14.85;;;7.50;96.90;;;;;;1922915;74;21173;-46
2022/11/28 12:49:55;;;;;;;;;;;7.50;96.90;;;;;;1927260;74;21211;-44
2022/11/28 12:53:02;;;;;;;18.67;11.18;;;7.50;96.90;;;;;;1924516;74;20630;-46
2022/11/28 12:55:57;;;;;;;10.58;7.03;;;7.50;97.00;;;;;;1925460;74;21145;-44
2022/11/28 12:58:29;;;;;;;10.90;7.63;;;7.50;96.80;;;;;;1925101;74;21098;-43
2022/11/28 13:01:04;;;;;;;14.03;7.78;;;7.50;96.80;;;;;;1887844;76;21717;-44
2022/11/28 13:04:01;;;;;;;23.42;13.28;;;7.40;96.70;;;;;;1876267;76;21258;-45
2022/11/28 13:06:49;;;;;;;21.15;10.78;;;7.40;96.80;;;;;;1877999;76;21225;-44
2022/11/28 13:09:44;;;;;;;19.25;9.60;;;7.40;96.80;;;;;;1878159;76;21264;-45
2022/11/28 13:12:45;;;;;;;13.85;8.15;;;7.40;96.70;;;;;;1877825;76;21221;-45
2022/11/28 13:15:17;;;;;;;19.92;10.70;;;7.40;97.20;;;;;;1877989;76;21184;-44
2022/11/28 13:17:58;;;;;;;19.17;9.33;;;7.50;97.40;;;;;;1877753;76;21170;-45
2022/11/28 13:20:44;;;;;;;11.08;7.58;;;7.70;96.80;;;;;;1878103;76;21430;-44
2022/11/28 13:23:19;;;;;;;16.55;10.08;;;7.70;96.30;;;;;;1877756;76;22275;-47
2022/11/28 13:26:09;;;;;;;8.58;5.40;;;7.80;96.30;;;;;;1877747;76;21097;-44